Time;durP1;ratioP1;P1;durP2;ratioP2;P2;SDS_P1;SDS_P2;PMS_P1;PMS_P2;Temp;Humidity;BMP_temperature;BMP_pressure;BME280_temperature;BME280_humidity;BME280_pressure;Samples;Min_cycle;Max_cycle;Signal;HPM_P1;HPM_P2
2024/03/07 00:00:19;;;;;;;45.80;27.83;;;;;;;6.73;71.53;97146.97;4987549;28;20059;-80
2024/03/07 00:02:48;;;;;;;44.13;29.35;;;;;;;6.74;75.08;97146.84;4976025;28;20570;-80
2024/03/07 00:05:17;;;;;;;41.55;27.70;;;;;;;6.72;73.00;97147.97;4974241;28;20046;-80
2024/03/07 00:07:47;;;;;;;42.83;26.83;;;;;;;6.67;70.83;97139.78;4974128;28;20051;-79
2024/03/07 00:10:15;;;;;;;38.92;26.67;;;;;;;6.60;70.09;97147.31;4973852;28;20054;-80
2024/03/07 00:12:44;;;;;;;38.08;25.33;;;;;;;6.51;69.43;97151.56;4974339;28;20129;-79
2024/03/07 00:15:13;;;;;;;35.47;25.05;;;;;;;6.42;69.01;97143.84;4973047;28;20054;-79
2024/03/07 00:17:42;;;;;;;39.40;26.95;;;;;;;6.32;69.11;97139.53;4971675;28;20135;-79
2024/03/07 00:20:14;;;;;;;41.50;27.20;;;;;;;6.21;68.77;97138.84;4971632;28;20141;-79
2024/03/07 00:22:43;;;;;;;42.53;28.23;;;;;;;6.15;70.70;97145.44;4971886;28;20054;-80
2024/03/07 00:25:12;;;;;;;38.65;25.80;;;;;;;6.15;70.67;97141.06;4971308;28;20137;-79
2024/03/07 00:27:40;;;;;;;40.67;27.17;;;;;;;6.13;69.98;97149.94;4971389;28;20047;-79
2024/03/07 00:30:09;;;;;;;39.97;28.13;;;;;;;6.09;69.88;97151.16;4972086;28;20141;-80
2024/03/07 00:32:39;;;;;;;41.33;26.63;;;;;;;6.06;69.63;97147.09;4976849;28;20061;-80
2024/03/07 00:35:08;;;;;;;38.55;26.77;;;;;;;6.05;69.08;97149.81;4976400;28;20082;-80
2024/03/07 00:37:36;;;;;;;41.20;26.80;;;;;;;5.99;70.35;97146.00;4976733;28;20113;-79
2024/03/07 00:40:05;;;;;;;39.85;27.15;;;;;;;5.96;69.78;97143.69;4977153;28;20078;-79
2024/03/07 00:42:35;;;;;;;43.88;27.02;;;;;;;5.95;69.38;97142.06;4976790;28;20054;-80
2024/03/07 00:45:03;;;;;;;39.08;25.80;;;;;;;5.93;69.56;97141.38;4976776;28;20051;-79
2024/03/07 00:47:31;;;;;;;43.72;27.83;;;;;;;5.92;69.34;97144.91;4976713;28;20051;-79
2024/03/07 00:49:59;;;;;;;42.33;27.33;;;;;;;5.91;71.21;97138.91;4976677;28;20137;-79
2024/03/07 00:52:27;;;;;;;40.63;26.65;;;;;;;5.97;71.17;97150.53;4976412;28;20054;-79
2024/03/07 00:54:55;;;;;;;41.55;27.13;;;;;;;5.98;70.44;97145.19;4975980;28;20105;-79
2024/03/07 00:57:23;;;;;;;43.15;28.08;;;;;;;5.98;71.43;97150.38;4976315;28;20097;-79
2024/03/07 00:59:51;;;;;;;43.20;27.48;;;;;;;5.97;71.66;97142.75;4976639;28;20109;-79
2024/03/07 01:02:20;;;;;;;42.28;27.83;;;;;;;5.94;71.57;97140.41;4976170;28;20133;-79
2024/03/07 01:04:48;;;;;;;36.78;25.23;;;;;;;5.90;70.36;97137.28;4976500;28;20054;-79
2024/03/07 01:07:16;;;;;;;42.83;26.80;;;;;;;5.83;69.33;97141.38;4976212;28;20125;-79
2024/03/07 01:09:43;;;;;;;39.15;27.55;;;;;;;5.77;68.93;97144.50;4976207;28;20043;-79
2024/03/07 01:12:11;;;;;;;39.95;26.63;;;;;;;5.71;69.24;97135.53;4976562;28;20050;-79
2024/03/07 01:14:39;;;;;;;40.35;27.58;;;;;;;5.74;71.88;97137.03;4952483;23;1066727;-80
2024/03/07 01:17:08;;;;;;;43.00;28.15;;;;;;;5.83;73.64;97145.72;4921614;29;20060;-80
2024/03/07 01:19:37;;;;;;;43.50;27.00;;;;;;;5.83;71.56;97138.78;4921482;29;20048;-80
2024/03/07 01:22:05;;;;;;;45.15;28.17;;;;;;;5.82;71.95;97136.34;4921480;29;20085;-80
2024/03/07 01:24:33;;;;;;;42.47;28.55;;;;;;;5.78;71.63;97134.00;4921372;29;20563;-80
2024/03/07 01:27:00;;;;;;;40.42;26.40;;;;;;;5.73;70.32;97136.22;4921155;29;20535;-80
2024/03/07 01:29:29;;;;;;;43.30;28.77;;;;;;;5.63;69.85;97134.59;4921843;29;20139;-80
2024/03/07 01:31:57;;;;;;;41.88;27.98;;;;;;;5.54;69.79;97125.88;4921461;29;20056;-80
2024/03/07 01:34:26;;;;;;;36.47;26.23;;;;;;;5.51;69.24;97133.88;4924495;29;20048;-80
2024/03/07 01:36:54;;;;;;;39.75;26.67;;;;;;;5.50;70.32;97124.50;4924923;29;20048;-80
2024/03/07 01:39:22;;;;;;;40.42;27.85;;;;;;;5.54;71.63;97128.47;4923756;29;20048;-80
2024/03/07 01:41:50;;;;;;;41.22;28.08;;;;;;;5.54;71.68;97123.28;4923051;29;20062;-80
2024/03/07 01:44:18;;;;;;;42.25;27.08;;;;;;;5.47;71.56;97125.59;4922900;29;20052;-80
2024/03/07 01:46:46;;;;;;;43.80;29.70;;;;;;;5.39;70.20;97119.47;4922733;29;20060;-80
2024/03/07 01:49:14;;;;;;;43.05;26.40;;;;;;;5.30;70.54;97115.94;4923050;29;20067;-80
2024/03/07 01:51:43;;;;;;;41.60;26.92;;;;;;;5.25;71.73;97106.00;4921879;29;20059;-80
2024/03/07 01:54:11;;;;;;;40.50;26.77;;;;;;;5.25;70.95;97113.75;4922832;29;20052;-80
2024/03/07 01:56:40;;;;;;;38.13;25.90;;;;;;;5.21;69.87;97114.97;4939837;29;20064;-80
2024/03/07 01:59:09;;;;;;;44.55;28.70;;;;;;;5.22;71.66;97114.00;4939888;29;20068;-80
2024/03/07 02:01:37;;;;;;;45.28;27.90;;;;;;;5.21;70.77;97104.63;4940291;29;20056;-80
2024/03/07 02:04:05;;;;;;;42.88;28.38;;;;;;;5.17;72.45;97103.25;4927478;29;20048;-80
2024/03/07 02:06:34;;;;;;;42.45;26.98;;;;;;;5.18;71.59;97102.31;4921784;29;20174;-80
2024/03/07 02:09:05;;;;;;;42.95;27.90;;;;;;;5.14;72.15;97098.38;4921752;29;20055;-81
2024/03/07 02:11:33;;;;;;;46.72;29.08;;;;;;;5.11;71.15;97093.47;4919798;29;20052;-80
2024/03/07 02:14:02;;;;;;;44.22;28.40;;;;;;;5.04;69.99;97092.38;4920062;29;20048;-80
2024/03/07 02:16:30;;;;;;;45.00;29.13;;;;;;;4.93;69.95;97086.38;4920618;29;20052;-80
2024/03/07 02:18:59;;;;;;;44.40;29.05;;;;;;;4.87;70.55;97084.31;4921832;29;20048;-80
2024/03/07 02:21:28;;;;;;;43.50;28.23;;;;;;;4.94;73.52;97082.84;4930987;29;20566;-80
2024/03/07 02:23:56;;;;;;;43.15;29.52;;;;;;;5.02;73.25;97086.50;4941757;29;20052;-80
2024/03/07 02:26:24;;;;;;;47.55;30.38;;;;;;;5.08;74.35;97085.97;4941064;29;20052;-81
2024/03/07 02:28:52;;;;;;;45.03;28.67;;;;;;;5.11;73.09;97073.56;4932898;29;20048;-80
2024/03/07 02:31:19;;;;;;;46.08;29.70;;;;;;;5.02;71.04;97073.59;4923581;29;20085;-80
2024/03/07 02:33:47;;;;;;;41.83;27.23;;;;;;;4.88;71.06;97067.88;4921902;29;20107;-80
2024/03/07 02:36:15;;;;;;;46.22;29.73;;;;;;;4.85;72.98;97073.28;4921920;29;20119;-80
2024/03/07 02:38:44;;;;;;;45.78;29.45;;;;;;;4.92;74.08;97074.41;4921688;29;20576;-80
2024/03/07 02:41:12;;;;;;;43.05;28.17;;;;;;;4.92;72.90;97078.75;4921572;29;20055;-80
2024/03/07 02:43:40;;;;;;;45.88;28.75;;;;;;;4.84;72.74;97071.66;4920968;29;20055;-80
2024/03/07 02:46:08;;;;;;;42.53;27.63;;;;;;;4.80;73.80;97069.47;4921133;29;20588;-80
2024/03/07 02:48:35;;;;;;;43.20;27.77;;;;;;;4.82;74.29;97068.41;4920965;29;20052;-80
2024/03/07 02:51:05;;;;;;;46.05;28.85;;;;;;;4.79;72.63;97071.25;4920462;29;20062;-80
2024/03/07 02:53:33;;;;;;;43.75;27.88;;;;;;;4.71;73.47;97061.56;4920068;29;20222;-80
2024/03/07 02:56:02;;;;;;;43.45;28.70;;;;;;;4.79;75.95;97067.84;4920716;29;20067;-80
2024/03/07 02:58:30;;;;;;;46.47;28.50;;;;;;;4.84;75.16;97066.50;4918835;29;20580;-83
2024/03/07 03:00:59;;;;;;;45.05;29.98;;;;;;;4.73;74.08;97069.19;4917382;29;20139;-82
2024/03/07 03:03:27;;;;;;;47.80;29.02;;;;;;;4.69;73.66;97060.09;4933600;29;20064;-83
2024/03/07 03:05:55;;;;;;;44.55;28.92;;;;;;;4.62;72.52;97059.00;4940734;29;20255;-83
2024/03/07 03:08:23;;;;;;;46.58;28.40;;;;;;;4.51;72.08;97052.16;4935570;29;20058;-83
2024/03/07 03:10:52;;;;;;;42.88;28.27;;;;;;;4.46;74.17;97049.97;4918434;29;20135;-83
2024/03/07 03:13:21;;;;;;;45.67;28.83;;;;;;;4.52;74.38;97057.19;4917633;29;20059;-83
2024/03/07 03:15:49;;;;;;;45.58;29.10;;;;;;;4.52;73.92;97052.00;4917571;29;20131;-82
2024/03/07 03:18:16;;;;;;;44.67;28.70;;;;;;;4.49;72.95;97060.03;4917515;29;20482;-82
2024/03/07 03:20:45;;;;;;;46.47;27.65;;;;;;;4.43;72.25;97059.75;4917420;29;20387;-83
2024/03/07 03:23:13;;;;;;;49.22;28.48;;;;;;;4.38;72.43;97049.81;4917177;29;20540;-83
2024/03/07 03:25:49;;;;;;;46.45;27.23;;;;;;;4.34;71.63;97048.44;4916956;29;20087;-82
2024/03/07 03:28:18;;;;;;;42.80;26.65;;;;;;;4.21;71.70;97050.44;4917645;29;20103;-83
2024/03/07 03:30:50;;;;;;;41.22;27.02;;;;;;;4.18;73.17;97058.47;4917609;29;20548;-83
2024/03/07 03:33:17;;;;;;;41.72;26.85;;;;;;;4.18;74.67;97064.44;4917471;29;20130;-82
2024/03/07 03:35:46;;;;;;;42.40;25.92;;;;;;;4.15;72.97;97053.53;4916899;29;20587;-83
2024/03/07 03:38:14;;;;;;;37.55;24.55;;;;;;;4.09;73.62;97050.53;4917278;29;20139;-83
2024/03/07 03:40:41;;;;;;;46.30;26.95;;;;;;;4.16;75.19;97052.59;4917398;29;20461;-82
2024/03/07 03:43:09;;;;;;;40.90;26.98;;;;;;;4.24;75.98;97053.59;4917089;29;20127;-83
2024/03/07 03:45:37;;;;;;;42.38;26.20;;;;;;;4.27;74.60;97052.50;4917049;29;20052;-83
2024/03/07 03:48:07;;;;;;;42.78;26.90;;;;;;;4.23;72.39;97051.13;4917221;29;20060;-83
2024/03/07 03:50:35;;;;;;;43.28;27.13;;;;;;;4.18;74.62;97048.13;4917144;29;20063;-80
2024/03/07 03:53:03;;;;;;;43.33;26.55;;;;;;;4.20;74.18;97051.38;4920173;29;20076;-80
2024/03/07 03:55:32;;;;;;;42.80;27.55;;;;;;;4.13;74.29;97046.75;4920061;29;20078;-80
2024/03/07 03:58:00;;;;;;;41.33;27.10;;;;;;;4.12;75.85;97054.63;4919877;29;20428;-80
2024/03/07 04:00:28;;;;;;;43.72;27.40;;;;;;;4.18;76.90;97053.28;4920600;29;20056;-80
2024/03/07 04:02:55;;;;;;;44.90;29.33;;;;;;;4.21;75.44;97053.03;4920439;29;20109;-80
2024/03/07 04:05:25;;;;;;;50.45;28.77;;;;;;;4.19;76.55;97045.41;4922052;29;20045;-80
2024/03/07 04:07:53;;;;;;;47.95;29.58;;;;;;;4.26;77.73;97043.09;4924043;29;20052;-80
2024/03/07 04:10:21;;;;;;;43.80;27.65;;;;;;;4.34;76.97;97045.84;4924038;29;20472;-80
2024/03/07 04:12:48;;;;;;;43.25;27.73;;;;;;;4.29;74.34;97045.44;4923421;29;20060;-80
2024/03/07 04:15:17;;;;;;;45.55;28.63;;;;;;;4.27;75.77;97049.94;4923256;29;20594;-80
2024/03/07 04:17:47;;;;;;;44.47;27.80;;;;;;;4.33;77.24;97041.66;4923654;29;20465;-80
2024/03/07 04:20:17;;;;;;;44.83;28.33;;;;;;;4.38;77.41;97044.66;4921607;29;20090;-82
2024/03/07 04:22:48;;;;;;;47.53;28.90;;;;;;;4.42;77.90;97043.44;4920246;29;20456;-82
2024/03/07 04:25:17;;;;;;;47.85;28.38;;;;;;;4.35;75.36;97044.91;4919851;29;20048;-82
2024/03/07 04:27:45;;;;;;;45.60;26.50;;;;;;;4.17;74.00;97041.31;4920262;29;20139;-82
2024/03/07 04:30:15;;;;;;;47.65;28.80;;;;;;;4.00;75.11;97041.00;4920014;29;20048;-82
2024/03/07 04:32:43;;;;;;;47.55;30.27;;;;;;;4.02;77.78;97035.69;4920730;29;20052;-82
2024/03/07 04:35:11;;;;;;;43.05;27.23;;;;;;;3.99;76.05;97034.19;4920641;29;20143;-82
2024/03/07 04:37:42;;;;;;;39.85;25.50;;;;;;;3.90;74.41;97035.78;4920614;29;20044;-82
2024/03/07 04:40:15;;;;;;;43.17;26.33;;;;;;;3.87;76.94;97037.78;4920531;29;20143;-82
2024/03/07 04:42:46;;;;;;;42.10;25.00;;;;;;;3.92;76.79;97033.06;4920659;29;20119;-82
2024/03/07 04:45:15;;;;;;;37.08;22.50;;;;;;;3.88;74.32;97032.50;4920009;29;20108;-82
2024/03/07 04:47:44;;;;;;;39.30;23.77;;;;;;;3.83;75.83;97033.84;4922825;29;20568;-80
2024/03/07 04:50:13;;;;;;;39.53;24.80;;;;;;;3.90;77.79;97037.56;4923353;29;20060;-80
2024/03/07 04:52:41;;;;;;;41.75;26.85;;;;;;;4.00;78.30;97037.56;4923069;29;20074;-80
2024/03/07 04:55:11;;;;;;;42.20;27.45;;;;;;;4.12;79.68;97029.63;4922821;29;20503;-80
2024/03/07 04:57:40;;;;;;;39.67;24.70;;;;;;;4.17;77.33;97031.78;4922871;29;20465;-80
2024/03/07 05:00:13;;;;;;;39.30;23.92;;;;;;;4.18;76.52;97038.63;4920598;29;20044;-82
2024/03/07 05:02:41;;;;;;;;;;;;;;;4.16;76.40;97035.34;4920338;29;20056;-82
2024/03/07 05:05:09;;;;;;;38.28;23.10;;;;;;;4.16;76.69;97037.13;4919634;29;19975;-82
2024/03/07 05:07:37;;;;;;;40.30;23.65;;;;;;;4.13;75.76;97036.44;4920390;29;20059;-82
2024/03/07 05:10:07;;;;;;;38.50;23.40;;;;;;;4.07;75.74;97039.53;4919714;29;20099;-82
2024/03/07 05:12:37;;;;;;;42.38;26.50;;;;;;;4.08;76.78;97035.97;4922170;29;20143;-82
2024/03/07 05:15:09;;;;;;;37.15;23.83;;;;;;;4.01;76.68;97041.81;4920903;29;20140;-82
2024/03/07 05:17:38;;;;;;;33.28;22.95;;;;;;;3.96;76.89;97028.44;4919933;29;20048;-82
2024/03/07 05:20:10;;;;;;;34.33;22.48;;;;;;;3.89;76.68;97033.31;4920399;29;20063;-82
2024/03/07 05:22:40;;;;;;;39.03;24.10;;;;;;;3.92;77.89;97043.41;4920387;29;20052;-82
2024/03/07 05:25:09;;;;;;;35.88;23.42;;;;;;;3.97;78.29;97038.66;4919560;29;20496;-82
2024/03/07 05:27:38;;;;;;;37.28;24.40;;;;;;;4.00;77.99;97035.00;4920555;29;20103;-82
2024/03/07 05:30:09;;;;;;;40.22;25.17;;;;;;;4.01;78.39;97042.63;4919923;29;20068;-82
2024/03/07 05:32:38;;;;;;;45.60;26.13;;;;;;;4.04;77.88;97031.22;4920128;29;20103;-82
2024/03/07 05:35:07;;;;;;;35.97;23.85;;;;;;;4.07;77.97;97036.13;4919637;29;20088;-81
2024/03/07 05:37:35;;;;;;;34.70;22.35;;;;;;;4.05;76.18;97038.03;4919408;29;20059;-81
2024/03/07 05:40:03;;;;;;;40.80;23.42;;;;;;;3.94;75.30;97033.75;4904849;29;20059;-82
2024/03/07 05:42:31;;;;;;;38.85;25.20;;;;;;;3.86;76.02;97033.59;4911045;29;20084;-82
2024/03/07 05:45:01;;;;;;;42.53;25.90;;;;;;;3.78;74.42;97033.41;4919870;29;20056;-82
2024/03/07 05:47:28;;;;;;;40.10;25.48;;;;;;;3.67;75.45;97032.56;4919405;29;20080;-82
2024/03/07 05:49:56;;;;;;;40.95;26.10;;;;;;;3.69;77.20;97035.00;4920505;29;20092;-82
2024/03/07 05:52:24;;;;;;;40.45;25.10;;;;;;;3.70;76.17;97040.03;4920060;29;20091;-82
2024/03/07 05:54:51;;;;;;;42.78;26.52;;;;;;;3.59;74.75;97027.22;4918409;29;20055;-81
2024/03/07 05:57:19;;;;;;;44.88;26.45;;;;;;;3.54;76.75;97029.34;4914044;29;20049;-82
2024/03/07 05:59:47;;;;;;;45.05;25.90;;;;;;;3.61;77.76;97034.84;4927852;29;20060;-82
2024/03/07 06:02:22;;;;;;;43.92;26.60;;;;;;;3.71;79.69;97031.34;4937358;29;20038;-82
2024/03/07 06:11:25;;;;;;;42.58;26.73;;;;;;;3.54;76.97;97031.91;5267268;23;20052;-78
2024/03/07 06:13:58;;;;;;;40.78;24.98;;;;;;;3.63;77.93;97033.75;4920705;29;20075;-80
2024/03/07 06:16:26;;;;;;;38.88;24.38;;;;;;;3.72;78.00;97032.97;4920003;29;20064;-82
2024/03/07 06:18:56;;;;;;;42.88;26.98;;;;;;;3.83;78.57;97039.81;4919416;29;20064;-82
2024/03/07 06:21:25;;;;;;;42.92;27.20;;;;;;;3.93;78.94;97034.69;4905303;29;20049;-79
2024/03/07 06:23:59;;;;;;;39.05;24.90;;;;;;;4.00;78.81;97035.84;4896025;29;20052;-79
2024/03/07 06:26:37;;;;;;;40.65;25.88;;;;;;;4.04;78.21;97039.75;4888278;29;20549;-79
2024/03/07 06:29:06;;;;;;;40.72;25.40;;;;;;;4.07;78.22;97041.28;4888267;29;20059;-79
2024/03/07 06:31:34;;;;;;;38.70;24.55;;;;;;;4.07;78.30;97036.13;4895979;29;20140;-81
2024/03/07 06:34:06;;;;;;;36.05;22.38;;;;;;;4.08;78.95;97038.56;4897329;29;20513;-82
2024/03/07 06:36:52;;;;;;;38.72;24.00;;;;;;;4.10;78.40;97036.66;4883711;29;20509;-83
2024/03/07 06:39:34;;;;;;;35.67;24.60;;;;;;;4.11;78.51;97035.75;4881927;29;20528;-82
2024/03/07 06:42:02;;;;;;;36.53;25.10;;;;;;;4.06;77.20;97035.28;4993785;23;20052;-83
2024/03/07 06:44:30;;;;;;;43.20;25.88;;;;;;;4.03;77.70;97032.16;4941461;29;20028;-83
2024/03/07 06:46:58;;;;;;;37.28;24.25;;;;;;;4.06;78.12;97034.47;4929470;29;20056;-82
2024/03/07 06:49:32;;;;;;;38.42;24.65;;;;;;;4.11;79.13;97033.16;5081270;27;1194178;-80
2024/03/07 06:52:00;;;;;;;39.78;22.88;;;;;;;4.13;79.22;97040.75;5093479;28;20063;-79
2024/03/07 06:54:28;;;;;;;38.08;25.05;;;;;;;4.15;78.94;97036.28;5091771;28;20109;-79
2024/03/07 06:56:55;;;;;;;40.85;22.25;;;;;;;4.17;76.83;97036.97;5084828;28;20052;-80
2024/03/07 06:59:23;;;;;;;34.03;21.80;;;;;;;4.12;76.27;97039.94;5094176;28;20048;-80
2024/03/07 07:01:51;;;;;;;36.92;22.17;;;;;;;4.14;77.19;97032.06;5093251;28;20138;-78
2024/03/07 07:04:19;;;;;;;36.38;23.25;;;;;;;4.19;78.33;97039.41;5081788;28;20075;-80
2024/03/07 07:06:48;;;;;;;37.67;22.20;;;;;;;4.23;78.83;97041.59;5089283;28;20104;-79
2024/03/07 07:09:18;;;;;;;38.22;22.77;;;;;;;4.23;78.38;97045.97;5082809;28;20049;-80
2024/03/07 07:11:47;;;;;;;43.40;22.58;;;;;;;4.25;79.19;97044.06;5074863;28;20044;-80
2024/03/07 07:14:15;;;;;;;47.17;23.23;;;;;;;4.29;78.81;97048.03;5073749;28;20064;-80
2024/03/07 07:16:45;;;;;;;39.38;21.88;;;;;;;4.32;79.20;97051.16;5111280;22;20109;-88
2024/03/07 07:19:14;;;;;;;56.53;25.60;;;;;;;4.38;79.64;97049.81;5078524;22;20125;-89
2024/03/07 07:21:42;;;;;;;145.52;33.78;;;;;;;4.39;77.86;97048.84;5054445;28;20033;-92
2024/03/07 07:24:11;;;;;;;82.43;29.88;;;;;;;4.28;75.28;97043.78;5046482;28;20022;-90
2024/03/07 07:26:39;;;;;;;43.40;21.10;;;;;;;4.15;74.60;97043.22;5054080;28;20076;-90
2024/03/07 07:29:07;;;;;;;49.10;23.23;;;;;;;4.09;76.43;97039.41;5049256;28;20044;-89
2024/03/07 07:31:35;;;;;;;48.42;24.20;;;;;;;4.23;78.65;97051.13;5044010;28;20053;-87
2024/03/07 07:34:04;;;;;;;34.80;22.83;;;;;;;4.33;77.14;97046.81;5053444;28;20570;-90
2024/03/07 07:36:34;;;;;;;34.85;22.75;;;;;;;4.44;77.73;97044.13;5047416;28;20046;-90
2024/03/07 07:39:43;;;;;;;36.30;21.88;;;;;;;4.66;77.66;97044.84;5033138;28;20050;-83
2024/03/07 07:42:24;;;;;;;34.00;20.17;;;;;;;4.70;74.65;97046.19;5047984;28;20049;-87
2024/03/07 07:45:16;;;;;;;32.13;22.02;;;;;;;4.66;71.73;97040.50;5053649;28;20037;-87
2024/03/07 07:50:46;;;;;;;41.13;23.10;;;;;;;4.80;72.19;97036.69;5032401;28;20033;-83
2024/03/07 07:53:30;;;;;;;36.85;21.95;;;;;;;4.90;72.98;97040.13;5031986;28;20425;-88
2024/03/07 08:03:17;;;;;;;45.42;24.42;;;;;;;5.40;70.07;97022.78;5017778;28;20061;-86
2024/03/07 08:05:59;;;;;;;39.30;23.20;;;;;;;5.52;69.85;97022.50;5018973;28;20046;-87
2024/03/07 08:08:36;;;;;;;34.33;21.02;;;;;;;5.62;68.98;97024.25;5036272;28;20049;-85
2024/03/07 08:11:04;;;;;;;32.38;21.73;;;;;;;5.75;69.02;97015.22;5034050;28;20045;-83
2024/03/07 08:13:32;;;;;;;36.40;23.27;;;;;;;5.87;68.25;97010.69;5020911;28;20141;-85
2024/03/07 08:16:00;;;;;;;33.03;23.30;;;;;;;5.96;67.35;97020.22;5013485;28;20038;-84
2024/03/07 08:18:29;;;;;;;32.45;21.95;;;;;;;6.07;70.17;97014.03;5013895;28;20057;-83
2024/03/07 08:20:57;;;;;;;32.60;21.90;;;;;;;6.17;68.39;97007.03;5014240;28;20458;-83
2024/03/07 08:23:26;;;;;;;37.08;23.08;;;;;;;6.21;68.47;97009.34;5013795;28;20109;-82
2024/03/07 08:25:54;;;;;;;32.33;22.30;;;;;;;6.25;67.64;97011.50;5010994;28;20050;-83
2024/03/07 08:28:21;;;;;;;31.33;20.77;;;;;;;6.37;66.98;97004.34;5013297;28;20044;-86
2024/03/07 08:30:49;;;;;;;32.67;22.63;;;;;;;6.52;65.97;97010.66;5018923;28;20049;-88
2024/03/07 08:33:21;;;;;;;34.85;21.95;;;;;;;6.63;65.39;97009.66;5029351;28;20054;-84
2024/03/07 08:35:52;;;;;;;32.10;21.75;;;;;;;6.76;64.50;97004.91;5018639;28;20042;-87
2024/03/07 08:38:21;;;;;;;33.08;21.38;;;;;;;6.79;64.25;96993.44;5030027;28;20042;-86
2024/03/07 08:40:49;;;;;;;32.05;21.88;;;;;;;6.89;64.53;97001.16;5019699;28;20085;-88
2024/03/07 08:43:22;;;;;;;35.63;22.38;;;;;;;7.05;62.99;97003.06;5027391;28;20050;-83
2024/03/07 08:45:50;;;;;;;28.63;21.27;;;;;;;7.08;62.42;96995.78;5031682;28;20034;-87
2024/03/07 08:48:19;;;;;;;28.40;20.27;;;;;;;7.20;62.41;96993.78;5019138;28;20046;-83
2024/03/07 08:50:47;;;;;;;30.15;21.02;;;;;;;7.37;65.36;96987.75;5019495;28;20050;-87
2024/03/07 08:53:18;;;;;;;28.58;20.42;;;;;;;7.54;62.42;96987.84;5020004;28;20065;-88
2024/03/07 08:55:46;;;;;;;31.95;21.70;;;;;;;7.64;62.24;96988.56;5020407;28;20069;-87
2024/03/07 08:58:14;;;;;;;31.58;22.13;;;;;;;7.77;62.17;96985.53;5025806;28;20057;-88
2024/03/07 09:00:41;;;;;;;31.23;20.50;;;;;;;7.85;60.44;96990.78;5032164;28;20058;-83
2024/03/07 09:03:10;;;;;;;29.95;19.88;;;;;;;7.91;60.10;96991.94;5023472;28;20521;-84
2024/03/07 09:05:40;;;;;;;31.17;20.58;;;;;;;8.07;59.20;96994.63;5017299;28;20057;-89
2024/03/07 09:08:09;;;;;;;29.35;20.70;;;;;;;8.18;60.29;96985.72;5028273;28;20129;-85
2024/03/07 09:10:41;;;;;;;31.05;20.13;;;;;;;8.34;58.63;97000.56;5031840;28;20118;-84
2024/03/07 09:13:09;;;;;;;30.45;21.33;;;;;;;8.48;57.68;96999.16;5034284;28;20102;-88
2024/03/07 09:15:37;;;;;;;31.83;21.67;;;;;;;8.45;57.11;96995.09;5022546;28;20057;-88
2024/03/07 09:18:05;;;;;;;30.77;21.00;;;;;;;8.43;56.70;96992.66;5038105;28;20061;-88
2024/03/07 09:20:33;;;;;;;29.55;20.48;;;;;;;8.46;56.52;96999.31;5033356;28;20029;-85
2024/03/07 09:23:01;;;;;;;31.23;21.10;;;;;;;8.57;55.84;96995.59;4995051;28;20050;-83
2024/03/07 09:25:32;;;;;;;30.88;21.85;;;;;;;8.66;55.77;96995.47;5015045;28;20050;-85
2024/03/07 09:28:01;;;;;;;30.10;20.92;;;;;;;8.76;55.39;96989.31;5015072;28;20081;-84
2024/03/07 09:30:30;;;;;;;29.95;20.67;;;;;;;8.83;55.77;97011.09;5015881;28;20046;-83
2024/03/07 09:33:02;;;;;;;29.65;20.50;;;;;;;8.81;55.22;96993.06;5034083;28;20060;-84
2024/03/07 09:35:33;;;;;;;26.33;18.45;;;;;;;8.81;56.27;96997.44;5033095;28;20054;-86
2024/03/07 09:38:00;;;;;;;33.05;21.25;;;;;;;8.85;55.12;96998.75;5009992;28;20057;-89
2024/03/07 09:40:28;;;;;;;34.15;21.63;;;;;;;8.90;54.96;96995.66;5017568;28;20119;-84
2024/03/07 09:43:00;;;;;;;32.65;22.48;;;;;;;8.99;54.26;96998.13;5009293;28;20445;-82
2024/03/07 09:45:32;;;;;;;28.70;20.08;;;;;;;8.96;53.66;96995.00;5006265;28;20054;-83
2024/03/07 09:48:00;;;;;;;28.05;20.48;;;;;;;8.95;54.41;96999.41;5027951;28;20050;-84
2024/03/07 09:50:31;;;;;;;32.55;20.95;;;;;;;8.89;53.94;96988.84;5017203;28;20514;-83
2024/03/07 09:53:00;;;;;;;31.27;21.73;;;;;;;8.81;54.53;96989.63;5002758;28;20064;-83
2024/03/07 09:55:28;;;;;;;29.08;20.83;;;;;;;8.76;55.02;96984.09;5020015;28;20046;-83
2024/03/07 09:57:59;;;;;;;32.33;21.85;;;;;;;8.76;56.80;96984.09;5024690;28;20054;-84
2024/03/07 10:00:29;;;;;;;28.70;21.02;;;;;;;8.78;56.79;96989.97;5024807;28;20153;-83
2024/03/07 10:03:06;;;;;;;29.90;21.65;;;;;;;8.86;56.32;96980.38;5011871;28;20100;-83
2024/03/07 10:05:36;;;;;;;34.53;21.00;;;;;;;8.93;55.55;96975.34;5002747;28;20547;-83
2024/03/07 10:08:05;;;;;;;30.17;21.25;;;;;;;8.99;54.98;96982.50;5008511;28;20115;-83
2024/03/07 10:10:34;;;;;;;31.85;20.75;;;;;;;8.96;54.77;96980.22;5006857;28;20046;-83
2024/03/07 10:13:02;;;;;;;33.30;22.33;;;;;;;8.97;54.50;96981.03;5016577;28;20050;-82
2024/03/07 10:15:31;;;;;;;31.85;22.60;;;;;;;8.87;54.35;96986.38;5019833;28;20049;-83
2024/03/07 10:18:01;;;;;;;32.60;23.15;;;;;;;8.72;54.09;96988.00;4999713;28;20514;-84
2024/03/07 10:20:29;;;;;;;37.60;23.55;;;;;;;8.56;55.00;96984.38;5023755;28;20133;-83
2024/03/07 10:22:57;;;;;;;29.08;22.35;;;;;;;8.41;54.97;96983.38;5019336;28;20144;-86
2024/03/07 10:25:27;;;;;;;33.42;23.17;;;;;;;8.24;54.97;96980.72;4999602;28;20054;-82
2024/03/07 10:27:57;;;;;;;35.60;25.38;;;;;;;8.16;55.61;96982.47;4999284;28;20046;-85
2024/03/07 10:30:26;;;;;;;34.28;24.48;;;;;;;8.13;56.51;96977.56;5002726;28;20041;-85
2024/03/07 10:32:56;;;;;;;35.00;23.33;;;;;;;8.12;56.17;96975.97;5020568;28;20053;-83
2024/03/07 10:35:28;;;;;;;33.25;23.67;;;;;;;8.12;56.27;96983.75;4990709;28;20050;-83
2024/03/07 10:38:00;;;;;;;35.50;23.85;;;;;;;8.07;56.39;96981.63;5025570;28;20125;-84
2024/03/07 10:40:29;;;;;;;37.83;25.15;;;;;;;7.98;56.47;96985.97;5021634;28;20045;-83
2024/03/07 10:43:02;;;;;;;36.97;23.33;;;;;;;7.89;59.43;96980.88;5022899;28;20053;-83
2024/03/07 10:45:32;;;;;;;34.53;24.02;;;;;;;7.92;58.38;96976.19;5018073;28;20062;-83
2024/03/07 10:48:01;;;;;;;38.15;25.92;;;;;;;7.95;57.57;96980.25;5003823;28;20482;-82
2024/03/07 10:50:54;;;;;;;36.03;24.65;;;;;;;7.86;57.78;96981.19;4985659;28;20110;-85
2024/03/07 10:53:30;;;;;;;32.92;24.35;;;;;;;7.80;58.21;96978.25;5003734;28;20058;-84
2024/03/07 10:56:14;;;;;;;38.17;24.98;;;;;;;7.81;58.15;96982.47;5024277;28;20132;-83
2024/03/07 10:58:59;;;;;;;38.58;26.15;;;;;;;7.81;58.24;96979.88;5019597;28;20129;-82
2024/03/07 11:01:31;;;;;;;38.97;26.55;;;;;;;7.78;58.75;96984.56;5006980;28;20089;-82
2024/03/07 11:04:00;;;;;;;40.65;26.77;;;;;;;7.73;58.09;96977.22;4997327;28;20078;-85
2024/03/07 11:06:30;;;;;;;39.65;25.83;;;;;;;7.63;58.23;96982.56;4996381;28;20413;-83
2024/03/07 11:08:58;;;;;;;39.33;26.05;;;;;;;7.57;58.44;96977.16;5009184;28;20054;-82
2024/03/07 11:11:28;;;;;;;36.63;24.30;;;;;;;7.52;58.83;96979.38;5018333;28;20077;-82
2024/03/07 11:13:58;;;;;;;36.50;24.48;;;;;;;7.51;59.02;96978.56;5014776;28;20049;-86
2024/03/07 11:16:27;;;;;;;39.35;25.33;;;;;;;7.53;59.34;96971.44;5018196;28;20128;-85
2024/03/07 11:19:36;;;;;;;39.95;27.90;;;;;;;7.49;59.02;96970.13;5018594;28;20080;-83
2024/03/07 11:22:15;;;;;;;40.55;26.95;;;;;;;7.46;59.04;96965.25;4999454;28;20081;-83
2024/03/07 11:24:43;;;;;;;35.70;24.90;;;;;;;7.46;59.31;96954.88;5016406;28;20105;-86
2024/03/07 11:27:13;;;;;;;43.08;25.90;;;;;;;7.51;59.35;96959.59;5011457;28;20094;-91
2024/03/07 11:30:06;;;;;;;36.72;25.25;;;;;;;7.58;59.22;96951.03;5009860;28;20058;-91
2024/03/07 11:32:36;;;;;;;;;;;;;;;7.69;59.60;96957.75;4994603;28;20110;-89
2024/03/07 11:35:07;;;;;;;36.22;23.08;;;;;;;7.80;58.88;96951.47;5004377;28;19989;-89
2024/03/07 11:37:46;;;;;;;34.83;24.55;;;;;;;7.82;58.24;96936.53;5001586;28;20097;-90
2024/03/07 11:40:34;;;;;;;39.22;24.60;;;;;;;7.77;58.77;96944.00;5018502;28;20050;-90
2024/03/07 11:43:04;;;;;;;34.47;23.33;;;;;;;7.73;58.83;96930.50;5030722;28;20084;-89
2024/03/07 11:45:38;;;;;;;40.17;26.10;;;;;;;7.75;59.02;96931.16;5023725;28;20053;-90
2024/03/07 11:48:08;;;;;;;35.72;23.77;;;;;;;7.75;59.24;96933.75;5021122;28;20114;-88
2024/03/07 11:50:37;;;;;;;40.95;25.00;;;;;;;7.79;59.15;96932.47;5008685;28;20050;-85
2024/03/07 11:53:21;;;;;;;40.08;26.80;;;;;;;7.78;59.09;96928.25;5021201;28;20034;-91
2024/03/07 11:56:09;;;;;;;40.55;25.05;;;;;;;7.80;60.04;96915.91;5023965;28;20050;-88